HEL weather

Helsinki Vantaa Airport
Helsinki, Southern Finland, Finland

Public forecast

Using degrees Celsius for public forecast. Weather courtesy of forecast.io.

METAR (pilot weather report)

Retrieved 2019/03/23 22:20 UTC (4 minutes ago):

EFHK 232220Z 23005KT CAVOK 01/M00 Q1006 NOSIG

TAF (pilot weather forecast)

Retrieved 2019/03/23 21:42 UTC (42 minutes ago):

TAF TAF EFHK 232031Z 2321/2421 20007KT 7000 BKN004 BECMG 2321/2323 CAVOK BECMG 2407/2409 29012KT